sensor_id;sensor_type;location;lat;lon;timestamp;pressure;altitude;pressure_sealevel;temperature;humidity
68489;BME280;55481;48.764;8.936;2024-02-15T00:02:18;97440;;;10.1;73
68489;BME280;55481;48.764;8.936;2024-02-15T00:07:19;97430;;;10.1;73.5
68489;BME280;55481;48.764;8.936;2024-02-15T00:09:57;97430;;;10.1;73
68489;BME280;55481;48.764;8.936;2024-02-15T00:12:28;97430;;;10.2;73
68489;BME280;55481;48.764;8.936;2024-02-15T00:17:30;97430;;;10.3;73
68489;BME280;55481;48.764;8.936;2024-02-15T00:20:02;97430;;;10.3;73
68489;BME280;55481;48.764;8.936;2024-02-15T00:25:10;97430;;;10.3;72.5
68489;BME280;55481;48.764;8.936;2024-02-15T00:27:39;97430;;;10.2;72.5
68489;BME280;55481;48.764;8.936;2024-02-15T00:30:10;97430;;;10.2;73
68489;BME280;55481;48.764;8.936;2024-02-15T00:35:04;97420;;;10.1;73
68489;BME280;55481;48.764;8.936;2024-02-15T00:37:35;97420;;;10;73
68489;BME280;55481;48.764;8.936;2024-02-15T00:40:06;97420;;;9.9;73
68489;BME280;55481;48.764;8.936;2024-02-15T00:45:08;97420;;;9.9;73
68489;BME280;55481;48.764;8.936;2024-02-15T00:50:15;97420;;;9.9;73
68489;BME280;55481;48.764;8.936;2024-02-15T00:52:46;97420;;;9.9;73
68489;BME280;55481;48.764;8.936;2024-02-15T00:57:39;97420;;;9.8;73
68489;BME280;55481;48.764;8.936;2024-02-15T01:00:10;97420;;;9.7;73.5
68489;BME280;55481;48.764;8.936;2024-02-15T01:02:41;97410;;;9.7;73.5
68489;BME280;55481;48.764;8.936;2024-02-15T01:10:21;97410;;;9.7;73
68489;BME280;55481;48.764;8.936;2024-02-15T01:12:51;97420;;;9.7;73
68489;BME280;55481;48.764;8.936;2024-02-15T01:15:21;97420;;;9.5;73.5
68489;BME280;55481;48.764;8.936;2024-02-15T01:20:19;97420;;;9.3;74
68489;BME280;55481;48.764;8.936;2024-02-15T01:22:48;97420;;;9.2;74
68489;BME280;55481;48.764;8.936;2024-02-15T01:25:19;97420;;;9.2;74
68489;BME280;55481;48.764;8.936;2024-02-15T01:27:50;97410;;;9.2;74
68489;BME280;55481;48.764;8.936;2024-02-15T01:30:20;97420;;;9.1;74
68489;BME280;55481;48.764;8.936;2024-02-15T01:32:52;97420;;;9.2;74
68489;BME280;55481;48.764;8.936;2024-02-15T01:35:22;97420;;;9.2;74
68489;BME280;55481;48.764;8.936;2024-02-15T01:45:19;97410;;;9;74
68489;BME280;55481;48.764;8.936;2024-02-15T01:47:51;97410;;;9;74
68489;BME280;55481;48.764;8.936;2024-02-15T01:50:21;97410;;;9;74
68489;BME280;55481;48.764;8.936;2024-02-15T01:52:54;97420;;;9;73.5
68489;BME280;55481;48.764;8.936;2024-02-15T01:57:59;97410;;;8.9;74
68489;BME280;55481;48.764;8.936;2024-02-15T02:00:30;97410;;;8.8;74
68489;BME280;55481;48.764;8.936;2024-02-15T02:03:01;97410;;;8.7;74
68489;BME280;55481;48.764;8.936;2024-02-15T02:05:32;97410;;;8.7;74
68489;BME280;55481;48.764;8.936;2024-02-15T02:12:59;97410;;;8.4;74.5
68489;BME280;55481;48.764;8.936;2024-02-15T02:15:29;97420;;;8.4;74.5
68489;BME280;55481;48.764;8.936;2024-02-15T02:18:00;97410;;;8.3;74.5
68489;BME280;55481;48.764;8.936;2024-02-15T02:20:30;97410;;;8.3;74.5
68489;BME280;55481;48.764;8.936;2024-02-15T02:24:13;97410;;;8.3;74.5
68489;BME280;55481;48.764;8.936;2024-02-15T02:26:34;97410;;;8.4;75
68489;BME280;55481;48.764;8.936;2024-02-15T02:29:05;97410;;;8.3;74.5
68489;BME280;55481;48.764;8.936;2024-02-15T02:31:35;97410;;;8;75
68489;BME280;55481;48.764;8.936;2024-02-15T02:34:06;97410;;;8;75
68489;BME280;55481;48.764;8.936;2024-02-15T02:36:37;97410;;;7.9;75
68489;BME280;55481;48.764;8.936;2024-02-15T02:41:38;97420;;;7.5;75
68489;BME280;55481;48.764;8.936;2024-02-15T02:44:09;97410;;;7.3;76
68489;BME280;55481;48.764;8.936;2024-02-15T02:51:42;97410;;;7.3;75
68489;BME280;55481;48.764;8.936;2024-02-15T02:54:12;97410;;;7.2;75
68489;BME280;55481;48.764;8.936;2024-02-15T02:59:20;97420;;;7;76
68489;BME280;55481;48.764;8.936;2024-02-15T03:01:57;97420;;;7.1;75.5
68489;BME280;55481;48.764;8.936;2024-02-15T03:04:22;97420;;;7.2;75
68489;BME280;55481;48.764;8.936;2024-02-15T03:06:53;97420;;;7.1;75
68489;BME280;55481;48.764;8.936;2024-02-15T03:09:30;97410;;;7.1;75
68489;BME280;55481;48.764;8.936;2024-02-15T03:17:03;97420;;;6.8;75.5
68489;BME280;55481;48.764;8.936;2024-02-15T03:19:36;97420;;;6.7;76
68489;BME280;55481;48.764;8.936;2024-02-15T03:22:04;97410;;;6.7;76
68489;BME280;55481;48.764;8.936;2024-02-15T03:24:34;97410;;;6.8;75.5
68489;BME280;55481;48.764;8.936;2024-02-15T03:27:07;97420;;;6.8;75
68489;BME280;55481;48.764;8.936;2024-02-15T03:29:34;97410;;;6.7;75.5
68489;BME280;55481;48.764;8.936;2024-02-15T03:32:04;97420;;;6.7;75.5
68489;BME280;55481;48.764;8.936;2024-02-15T03:34:36;97420;;;6.7;76
68489;BME280;55481;48.764;8.936;2024-02-15T03:39:31;97420;;;6.8;75.5
68489;BME280;55481;48.764;8.936;2024-02-15T03:47:09;97420;;;7.2;74
68489;BME280;55481;48.764;8.936;2024-02-15T03:49:39;97420;;;7.3;74
68489;BME280;55481;48.764;8.936;2024-02-15T03:52:10;97420;;;7.4;74
68489;BME280;55481;48.764;8.936;2024-02-15T03:54:39;97430;;;7.3;74
68489;BME280;55481;48.764;8.936;2024-02-15T03:57:03;97430;;;7.4;74
68489;BME280;55481;48.764;8.936;2024-02-15T03:59:36;97420;;;7.5;74
68489;BME280;55481;48.764;8.936;2024-02-15T04:02:12;97430;;;7.5;74
68489;BME280;55481;48.764;8.936;2024-02-15T04:09:38;97420;;;7.6;74
68489;BME280;55481;48.764;8.936;2024-02-15T04:12:09;97420;;;7.6;74
68489;BME280;55481;48.764;8.936;2024-02-15T04:14:53;97420;;;7.7;73.5
68489;BME280;55481;48.764;8.936;2024-02-15T04:17:16;97420;;;7.8;73.5
68489;BME280;55481;48.764;8.936;2024-02-15T04:19:46;97410;;;7.7;74
68489;BME280;55481;48.764;8.936;2024-02-15T04:22:16;97420;;;7.6;74
68489;BME280;55481;48.764;8.936;2024-02-15T04:24:54;97420;;;7.7;74
68489;BME280;55481;48.764;8.936;2024-02-15T04:27:30;97420;;;7.6;74
68489;BME280;55481;48.764;8.936;2024-02-15T04:32:04;97420;;;7.7;74
68489;BME280;55481;48.764;8.936;2024-02-15T04:34:36;97410;;;7.8;74
68489;BME280;55481;48.764;8.936;2024-02-15T04:37:06;97410;;;7.8;74
68489;BME280;55481;48.764;8.936;2024-02-15T04:39:39;97410;;;7.8;74
68489;BME280;55481;48.764;8.936;2024-02-15T04:42:08;97410;;;7.8;74
68489;BME280;55481;48.764;8.936;2024-02-15T04:49:40;97400;;;7.7;74
68489;BME280;55481;48.764;8.936;2024-02-15T04:57:25;97390;;;7.9;74
68489;BME280;55481;48.764;8.936;2024-02-15T04:59:55;97390;;;7.9;74
68489;BME280;55481;48.764;8.936;2024-02-15T05:02:19;97400;;;8;74
68489;BME280;55481;48.764;8.936;2024-02-15T05:04:51;97400;;;8;73.5
68489;BME280;55481;48.764;8.936;2024-02-15T05:07:22;97400;;;8;73.5
68489;BME280;55481;48.764;8.936;2024-02-15T05:09:53;97400;;;8.1;73.5
68489;BME280;55481;48.764;8.936;2024-02-15T05:12:23;97400;;;8;73.5
68489;BME280;55481;48.764;8.936;2024-02-15T05:14:55;97390;;;8;73.5
68489;BME280;55481;48.764;8.936;2024-02-15T05:17:32;97390;;;8;73.5
68489;BME280;55481;48.764;8.936;2024-02-15T05:22:27;97390;;;8;74
68489;BME280;55481;48.764;8.936;2024-02-15T05:24:58;97390;;;7.9;74
68489;BME280;55481;48.764;8.936;2024-02-15T05:27:32;97390;;;7.8;74.5
68489;BME280;55481;48.764;8.936;2024-02-15T05:30:00;97390;;;7.7;74.5
68489;BME280;55481;48.764;8.936;2024-02-15T05:32:32;97380;;;7.6;75
68489;BME280;55481;48.764;8.936;2024-02-15T05:35:03;97380;;;7.8;74.5
68489;BME280;55481;48.764;8.936;2024-02-15T05:37:33;97390;;;7.8;74.5
68489;BME280;55481;48.764;8.936;2024-02-15T05:40:05;97390;;;7.8;74
68489;BME280;55481;48.764;8.936;2024-02-15T05:42:35;97390;;;7.8;74
68489;BME280;55481;48.764;8.936;2024-02-15T05:45:27;97390;;;7.8;74
68489;BME280;55481;48.764;8.936;2024-02-15T05:47:44;97400;;;7.8;74
68489;BME280;55481;48.764;8.936;2024-02-15T05:52:39;97400;;;7.9;74
68489;BME280;55481;48.764;8.936;2024-02-15T05:55:11;97400;;;7.9;74
68489;BME280;55481;48.764;8.936;2024-02-15T05:57:41;97400;;;7.9;74
68489;BME280;55481;48.764;8.936;2024-02-15T06:00:13;97400;;;7.9;74
68489;BME280;55481;48.764;8.936;2024-02-15T06:02:43;97390;;;7.9;74
68489;BME280;55481;48.764;8.936;2024-02-15T06:05:15;97390;;;7.8;74
68489;BME280;55481;48.764;8.936;2024-02-15T06:07:45;97390;;;7.8;74
68489;BME280;55481;48.764;8.936;2024-02-15T06:10:16;97390;;;7.7;74.5
68489;BME280;55481;48.764;8.936;2024-02-15T06:12:54;97390;;;7.6;74.5
68489;BME280;55481;48.764;8.936;2024-02-15T06:17:49;97390;;;7.5;74.5
68489;BME280;55481;48.764;8.936;2024-02-15T06:20:20;97390;;;7.5;74.5
68489;BME280;55481;48.764;8.936;2024-02-15T06:22:58;97390;;;7.5;74.5
68489;BME280;55481;48.764;8.936;2024-02-15T06:25:22;97390;;;7.5;74.5
68489;BME280;55481;48.764;8.936;2024-02-15T06:27:53;97390;;;7.4;74.5
68489;BME280;55481;48.764;8.936;2024-02-15T06:30:24;97400;;;7.4;74.5
68489;BME280;55481;48.764;8.936;2024-02-15T06:32:55;97390;;;7.3;74.5
68489;BME280;55481;48.764;8.936;2024-02-15T06:35:26;97390;;;7.3;74.5
68489;BME280;55481;48.764;8.936;2024-02-15T06:37:57;97390;;;7.3;74.5
68489;BME280;55481;48.764;8.936;2024-02-15T06:40:34;97380;;;7.3;74.5
68489;BME280;55481;48.764;8.936;2024-02-15T06:43:05;97390;;;7.3;74.5
68489;BME280;55481;48.764;8.936;2024-02-15T06:48:20;97390;;;7.3;74.5
68489;BME280;55481;48.764;8.936;2024-02-15T06:50:37;97390;;;7.4;74.5
68489;BME280;55481;48.764;8.936;2024-02-15T06:53:07;97390;;;7.4;74
68489;BME280;55481;48.764;8.936;2024-02-15T06:55:37;97390;;;7.5;74
68489;BME280;55481;48.764;8.936;2024-02-15T06:58:07;97400;;;7.5;74
68489;BME280;55481;48.764;8.936;2024-02-15T07:00:38;97390;;;7.6;74
68489;BME280;55481;48.764;8.936;2024-02-15T07:03:02;97390;;;7.6;74
68489;BME280;55481;48.764;8.936;2024-02-15T07:05:33;97390;;;7.7;73.5
68489;BME280;55481;48.764;8.936;2024-02-15T07:08:10;97390;;;7.7;73.5
68489;BME280;55481;48.764;8.936;2024-02-15T07:10:42;97390;;;7.8;73.5
68489;BME280;55481;48.764;8.936;2024-02-15T07:15:56;97380;;;7.9;73.5
68489;BME280;55481;48.764;8.936;2024-02-15T07:20:45;97380;;;8.1;73.5
68489;BME280;55481;48.764;8.936;2024-02-15T07:23:14;97370;;;8.2;73.5
68489;BME280;55481;48.764;8.936;2024-02-15T07:25:37;97370;;;8.2;73.5
68489;BME280;55481;48.764;8.936;2024-02-15T07:28:09;97370;;;8.3;73.5
68489;BME280;55481;48.764;8.936;2024-02-15T07:30:40;97360;;;8.4;73.5
68489;BME280;55481;48.764;8.936;2024-02-15T07:38:05;97340;;;8.4;73.5
68489;BME280;55481;48.764;8.936;2024-02-15T07:40:37;97340;;;8.5;73.5
68489;BME280;55481;48.764;8.936;2024-02-15T07:43:07;97330;;;8.7;73
68489;BME280;55481;48.764;8.936;2024-02-15T07:45:42;97330;;;8.8;73
68489;BME280;55481;48.764;8.936;2024-02-15T07:48:09;97330;;;8.9;73
68489;BME280;55481;48.764;8.936;2024-02-15T07:50:50;97320;;;8.8;73
68489;BME280;55481;48.764;8.936;2024-02-15T07:53:18;97330;;;8.9;73
68489;BME280;55481;48.764;8.936;2024-02-15T07:55:51;97320;;;9.1;73
68489;BME280;55481;48.764;8.936;2024-02-15T07:58:21;97330;;;9.1;73
68489;BME280;55481;48.764;8.936;2024-02-15T08:08:37;97320;;;9.4;73
68489;BME280;55481;48.764;8.936;2024-02-15T08:11:14;97320;;;9.4;73
68489;BME280;55481;48.764;8.936;2024-02-15T08:13:36;97310;;;9.6;73
68489;BME280;55481;48.764;8.936;2024-02-15T08:16:00;97320;;;9.6;72.5
68489;BME280;55481;48.764;8.936;2024-02-15T08:18:29;97310;;;9.6;73
68489;BME280;55481;48.764;8.936;2024-02-15T08:20:54;97310;;;9.4;73.5
68489;BME280;55481;48.764;8.936;2024-02-15T08:23:33;97310;;;9.5;73.5
68489;BME280;55481;48.764;8.936;2024-02-15T08:26:01;97310;;;9.5;73
68489;BME280;55481;48.764;8.936;2024-02-15T08:28:36;97300;;;9.5;73.5
68489;BME280;55481;48.764;8.936;2024-02-15T08:33:49;97300;;;9.4;73.5
68489;BME280;55481;48.764;8.936;2024-02-15T08:36:06;97290;;;9.3;74
68489;BME280;55481;48.764;8.936;2024-02-15T08:38:42;97290;;;9.4;74
68489;BME280;55481;48.764;8.936;2024-02-15T08:41:08;97280;;;9.5;73.5
68489;BME280;55481;48.764;8.936;2024-02-15T08:43:35;97290;;;9.6;73.5
68489;BME280;55481;48.764;8.936;2024-02-15T08:46:07;97280;;;9.8;73
68489;BME280;55481;48.764;8.936;2024-02-15T08:48:38;97280;;;9.8;73
68489;BME280;55481;48.764;8.936;2024-02-15T08:51:03;97280;;;9.9;73
68489;BME280;55481;48.764;8.936;2024-02-15T08:53:40;97280;;;10.1;72.5
68489;BME280;55481;48.764;8.936;2024-02-15T08:56:09;97280;;;10.2;72.5
68489;BME280;55481;48.764;8.936;2024-02-15T08:58:33;97270;;;10.2;72.5
68489;BME280;55481;48.764;8.936;2024-02-15T09:01:13;97280;;;10.3;72.5
68489;BME280;55481;48.764;8.936;2024-02-15T09:11:14;97260;;;11.2;71
68489;BME280;55481;48.764;8.936;2024-02-15T09:13:48;97260;;;11.1;71.5
68489;BME280;55481;48.764;8.936;2024-02-15T09:16:14;97260;;;11.1;71.5
68489;BME280;55481;48.764;8.936;2024-02-15T09:18:48;97260;;;11.1;72
68489;BME280;55481;48.764;8.936;2024-02-15T09:21:22;97260;;;11.1;72
68489;BME280;55481;48.764;8.936;2024-02-15T09:24:00;97260;;;11.4;72
68489;BME280;55481;48.764;8.936;2024-02-15T09:26:30;97260;;;11.5;71.5
68489;BME280;55481;48.764;8.936;2024-02-15T09:28:44;97260;;;11.4;72
68489;BME280;55481;48.764;8.936;2024-02-15T09:31:14;97250;;;11.5;71.5
68489;BME280;55481;48.764;8.936;2024-02-15T09:33:45;97250;;;11.5;72
68489;BME280;55481;48.764;8.936;2024-02-15T09:36:15;97250;;;11.7;71.5
68489;BME280;55481;48.764;8.936;2024-02-15T09:38:40;97260;;;11.8;71.5
68489;BME280;55481;48.764;8.936;2024-02-15T09:41:17;97250;;;11.8;71.5
68489;BME280;55481;48.764;8.936;2024-02-15T09:48:44;97240;;;12.1;71
68489;BME280;55481;48.764;8.936;2024-02-15T09:51:21;97250;;;12.2;71
68489;BME280;55481;48.764;8.936;2024-02-15T09:53:50;97240;;;12.1;71.5
68489;BME280;55481;48.764;8.936;2024-02-15T09:56:20;97240;;;12.1;71.5
68489;BME280;55481;48.764;8.936;2024-02-15T09:58:51;97240;;;12.3;71
68489;BME280;55481;48.764;8.936;2024-02-15T10:01:22;97240;;;12.3;71
68489;BME280;55481;48.764;8.936;2024-02-15T10:11:13;97220;;;12.6;71
68489;BME280;55481;48.764;8.936;2024-02-15T10:13:41;97210;;;12.7;70.5
68489;BME280;55481;48.764;8.936;2024-02-15T10:16:16;97210;;;12.8;70.5
68489;BME280;55481;48.764;8.936;2024-02-15T10:18:42;97210;;;13;70.5
68489;BME280;55481;48.764;8.936;2024-02-15T10:24:06;97210;;;13;70.5
68489;BME280;55481;48.764;8.936;2024-02-15T10:26:21;97210;;;13.2;70.5
68489;BME280;55481;48.764;8.936;2024-02-15T10:29:04;97210;;;13.4;70
68489;BME280;55481;48.764;8.936;2024-02-15T10:31:16;97210;;;13.5;70
68489;BME280;55481;48.764;8.936;2024-02-15T10:38:48;97200;;;13.8;70
68489;BME280;55481;48.764;8.936;2024-02-15T10:41:21;97200;;;13.9;70
68489;BME280;55481;48.764;8.936;2024-02-15T10:43:50;97190;;;14.1;69.5
68489;BME280;55481;48.764;8.936;2024-02-15T10:46:22;97190;;;14.1;69.5
68489;BME280;55481;48.764;8.936;2024-02-15T10:48:51;97190;;;14.2;69.5
68489;BME280;55481;48.764;8.936;2024-02-15T10:51:22;97190;;;14.2;69.5
68489;BME280;55481;48.764;8.936;2024-02-15T10:53:57;97190;;;14.2;70
68489;BME280;55481;48.764;8.936;2024-02-15T10:59:09;97180;;;14.5;69.5
68489;BME280;55481;48.764;8.936;2024-02-15T11:01:31;97180;;;14.7;69
68489;BME280;55481;48.764;8.936;2024-02-15T11:04:09;97180;;;14.3;70
68489;BME280;55481;48.764;8.936;2024-02-15T11:06:40;97170;;;14.3;70.5
68489;BME280;55481;48.764;8.936;2024-02-15T11:11:54;97160;;;14.7;69.5
68489;BME280;55481;48.764;8.936;2024-02-15T11:15:37;97160;;;14.7;69.5
68489;BME280;55481;48.764;8.936;2024-02-15T11:19:05;97150;;;14.9;69
68489;BME280;55481;48.764;8.936;2024-02-15T11:21:52;97140;;;14.8;69.5
68489;BME280;55481;48.764;8.936;2024-02-15T11:24:45;97150;;;14.6;70
68489;BME280;55481;48.764;8.936;2024-02-15T11:26:45;97140;;;14.7;70
68489;BME280;55481;48.764;8.936;2024-02-15T11:29:09;97140;;;14.9;69.5
68489;BME280;55481;48.764;8.936;2024-02-15T11:31:52;97140;;;15;69
68489;BME280;55481;48.764;8.936;2024-02-15T11:34:49;97130;;;15;69
68489;BME280;55481;48.764;8.936;2024-02-15T11:42:23;97130;;;15;69.5
68489;BME280;55481;48.764;8.936;2024-02-15T11:44:20;97120;;;15.1;69.5
68489;BME280;55481;48.764;8.936;2024-02-15T11:49:15;97110;;;15.2;69.5
68489;BME280;55481;48.764;8.936;2024-02-15T11:51:46;97110;;;15.3;69
68489;BME280;55481;48.764;8.936;2024-02-15T11:54:20;97110;;;15.4;69
68489;BME280;55481;48.764;8.936;2024-02-15T11:56:48;97110;;;15.4;69.5
68489;BME280;55481;48.764;8.936;2024-02-15T12:01:57;97100;;;15.4;69
68489;BME280;55481;48.764;8.936;2024-02-15T12:04:26;97090;;;15.4;69
68489;BME280;55481;48.764;8.936;2024-02-15T12:06:58;97090;;;15.4;69.5
68489;BME280;55481;48.764;8.936;2024-02-15T12:09:21;97090;;;15.4;69.5
68489;BME280;55481;48.764;8.936;2024-02-15T12:11:57;97090;;;15.6;69
68489;BME280;55481;48.764;8.936;2024-02-15T12:14:22;97080;;;15.7;69
68489;BME280;55481;48.764;8.936;2024-02-15T12:16:58;97080;;;15.8;68.5
68489;BME280;55481;48.764;8.936;2024-02-15T12:19:25;97080;;;15.8;68.5
68489;BME280;55481;48.764;8.936;2024-02-15T12:21:56;97080;;;15.8;69
68489;BME280;55481;48.764;8.936;2024-02-15T12:24:34;97070;;;16.1;68.5
68489;BME280;55481;48.764;8.936;2024-02-15T12:27:04;97070;;;16;68.5
68489;BME280;55481;48.764;8.936;2024-02-15T12:34:30;97070;;;15.8;69.5
68489;BME280;55481;48.764;8.936;2024-02-15T12:37:05;97070;;;15.7;69.5
68489;BME280;55481;48.764;8.936;2024-02-15T12:39:37;97060;;;15.6;69.5
68489;BME280;55481;48.764;8.936;2024-02-15T12:42:09;97050;;;15.9;69
68489;BME280;55481;48.764;8.936;2024-02-15T12:44:41;97050;;;15.8;69
68489;BME280;55481;48.764;8.936;2024-02-15T12:47:05;97050;;;15.7;69.5
68489;BME280;55481;48.764;8.936;2024-02-15T12:49:51;97050;;;15.8;69
68489;BME280;55481;48.764;8.936;2024-02-15T12:52:45;97040;;;15.9;69
68489;BME280;55481;48.764;8.936;2024-02-15T12:57:09;97030;;;16;68.5
68489;BME280;55481;48.764;8.936;2024-02-15T12:59:41;97030;;;16;68.5
68489;BME280;55481;48.764;8.936;2024-02-15T13:02:12;97030;;;15.8;69
68489;BME280;55481;48.764;8.936;2024-02-15T13:04:42;97030;;;15.8;69
68489;BME280;55481;48.764;8.936;2024-02-15T13:07:13;97020;;;16;68.5
68489;BME280;55481;48.764;8.936;2024-02-15T13:09:45;97020;;;15.7;69
68489;BME280;55481;48.764;8.936;2024-02-15T13:12:17;97020;;;15.4;70
68489;BME280;55481;48.764;8.936;2024-02-15T13:14:47;97020;;;15.6;69.5
68489;BME280;55481;48.764;8.936;2024-02-15T13:17:23;97010;;;15.7;69
68489;BME280;55481;48.764;8.936;2024-02-15T13:22:19;97010;;;16.1;68
68489;BME280;55481;48.764;8.936;2024-02-15T13:27:27;97000;;;16;69
68489;BME280;55481;48.764;8.936;2024-02-15T13:29:57;97010;;;16.1;68.5
68489;BME280;55481;48.764;8.936;2024-02-15T13:32:27;97000;;;16.2;68
68489;BME280;55481;48.764;8.936;2024-02-15T13:37:22;97000;;;16.2;68
68489;BME280;55481;48.764;8.936;2024-02-15T13:39:53;96990;;;16;68.5
68489;BME280;55481;48.764;8.936;2024-02-15T13:42:26;96990;;;15.9;69
68489;BME280;55481;48.764;8.936;2024-02-15T13:44:58;96990;;;15.9;68.5
68489;BME280;55481;48.764;8.936;2024-02-15T13:47:26;96980;;;15.8;69
68489;BME280;55481;48.764;8.936;2024-02-15T13:50:07;96980;;;15.7;69
68489;BME280;55481;48.764;8.936;2024-02-15T13:52:38;96980;;;15.6;69.5
68489;BME280;55481;48.764;8.936;2024-02-15T13:55:01;96970;;;15.6;69
68489;BME280;55481;48.764;8.936;2024-02-15T13:57:35;96980;;;15.6;69
68489;BME280;55481;48.764;8.936;2024-02-15T14:00:05;96970;;;15.7;69
68489;BME280;55481;48.764;8.936;2024-02-15T14:02:32;96970;;;15.8;68.5
68489;BME280;55481;48.764;8.936;2024-02-15T14:05:03;96960;;;15.7;69
68489;BME280;55481;48.764;8.936;2024-02-15T14:07:35;96960;;;15.8;68.5
68489;BME280;55481;48.764;8.936;2024-02-15T14:10:06;96950;;;16;68
68489;BME280;55481;48.764;8.936;2024-02-15T14:12:37;96950;;;16;68
68489;BME280;55481;48.764;8.936;2024-02-15T14:20:09;96940;;;16.2;68
68489;BME280;55481;48.764;8.936;2024-02-15T14:25:16;96940;;;16.2;68
68489;BME280;55481;48.764;8.936;2024-02-15T14:27:46;96930;;;16.1;68
68489;BME280;55481;48.764;8.936;2024-02-15T14:32:48;96930;;;16.1;68.5
68489;BME280;55481;48.764;8.936;2024-02-15T14:37:52;96930;;;16.1;68.5
68489;BME280;55481;48.764;8.936;2024-02-15T14:40:24;96930;;;16.2;68
68489;BME280;55481;48.764;8.936;2024-02-15T14:42:48;96930;;;16.3;68
68489;BME280;55481;48.764;8.936;2024-02-15T14:45:24;96930;;;16.4;67.5
68489;BME280;55481;48.764;8.936;2024-02-15T14:47:41;96930;;;16.4;67.5
68489;BME280;55481;48.764;8.936;2024-02-15T14:50:20;96930;;;16.5;67.5
68489;BME280;55481;48.764;8.936;2024-02-15T14:52:46;96940;;;16.4;68
68489;BME280;55481;48.764;8.936;2024-02-15T14:55:15;96940;;;16.2;68
68489;BME280;55481;48.764;8.936;2024-02-15T14:57:45;96940;;;16.1;68.5
68489;BME280;55481;48.764;8.936;2024-02-15T15:00:25;96940;;;16;68.5
68489;BME280;55481;48.764;8.936;2024-02-15T15:02:47;96940;;;16;68.5
68489;BME280;55481;48.764;8.936;2024-02-15T15:05:24;96940;;;16;68.5
68489;BME280;55481;48.764;8.936;2024-02-15T15:13:00;96930;;;15.7;68.5
68489;BME280;55481;48.764;8.936;2024-02-15T15:15:27;96940;;;15.6;68.5
68489;BME280;55481;48.764;8.936;2024-02-15T15:17:57;96940;;;15.6;68.5
68489;BME280;55481;48.764;8.936;2024-02-15T15:22:51;96930;;;15.5;68.5
68489;BME280;55481;48.764;8.936;2024-02-15T15:28:00;96920;;;15.6;68.5
68489;BME280;55481;48.764;8.936;2024-02-15T15:32:56;96920;;;15.5;68.5
68489;BME280;55481;48.764;8.936;2024-02-15T15:35:26;96910;;;15.4;68.5
68489;BME280;55481;48.764;8.936;2024-02-15T15:38:03;96910;;;15.3;69
68489;BME280;55481;48.764;8.936;2024-02-15T15:40:35;96910;;;15.2;69
68489;BME280;55481;48.764;8.936;2024-02-15T15:43:03;96910;;;15.1;69
68489;BME280;55481;48.764;8.936;2024-02-15T15:45:35;96900;;;15;69
68489;BME280;55481;48.764;8.936;2024-02-15T15:48:14;96900;;;14.9;69.5
68489;BME280;55481;48.764;8.936;2024-02-15T15:50:36;96900;;;14.9;69.5
68489;BME280;55481;48.764;8.936;2024-02-15T15:55:31;96900;;;14.8;69.5
68489;BME280;55481;48.764;8.936;2024-02-15T15:58:01;96900;;;14.7;69.5
68489;BME280;55481;48.764;8.936;2024-02-15T16:03:12;96900;;;14.5;70
68489;BME280;55481;48.764;8.936;2024-02-15T16:05:39;96900;;;14.4;70
68489;BME280;55481;48.764;8.936;2024-02-15T16:10:33;96900;;;14.2;70
68489;BME280;55481;48.764;8.936;2024-02-15T16:13:06;96890;;;14.2;70
68489;BME280;55481;48.764;8.936;2024-02-15T16:15:36;96890;;;14;70
68489;BME280;55481;48.764;8.936;2024-02-15T16:18:13;96890;;;14;70
68489;BME280;55481;48.764;8.936;2024-02-15T16:20:47;96890;;;13.8;70
68489;BME280;55481;48.764;8.936;2024-02-15T16:23:15;96890;;;13.8;70
68489;BME280;55481;48.764;8.936;2024-02-15T16:30:48;96890;;;13.7;70
68489;BME280;55481;48.764;8.936;2024-02-15T16:33:18;96890;;;13.6;70
68489;BME280;55481;48.764;8.936;2024-02-15T16:35:48;96890;;;13.4;70.5
68489;BME280;55481;48.764;8.936;2024-02-15T16:38:18;96890;;;13.3;70.5
68489;BME280;55481;48.764;8.936;2024-02-15T16:40:48;96890;;;13.3;70
68489;BME280;55481;48.764;8.936;2024-02-15T16:43:19;96890;;;13.3;70
68489;BME280;55481;48.764;8.936;2024-02-15T16:48:24;96890;;;13.2;70
68489;BME280;55481;48.764;8.936;2024-02-15T16:50:49;96880;;;13.2;70
68489;BME280;55481;48.764;8.936;2024-02-15T16:53:19;96880;;;13.1;70
68489;BME280;55481;48.764;8.936;2024-02-15T16:55:50;96880;;;13;70
68489;BME280;55481;48.764;8.936;2024-02-15T17:00:57;96880;;;12.8;70.5
68489;BME280;55481;48.764;8.936;2024-02-15T17:03:15;96870;;;12.7;70.5
68489;BME280;55481;48.764;8.936;2024-02-15T17:10:48;96890;;;12.5;71
68489;BME280;55481;48.764;8.936;2024-02-15T17:15:56;96880;;;12.5;70.5
68489;BME280;55481;48.764;8.936;2024-02-15T17:21:00;96880;;;12.4;70.5
68489;BME280;55481;48.764;8.936;2024-02-15T17:23:27;96880;;;12.4;70.5
68489;BME280;55481;48.764;8.936;2024-02-15T17:25:52;96880;;;12.3;70.5
68489;BME280;55481;48.764;8.936;2024-02-15T17:28:22;96890;;;12.3;70.5
68489;BME280;55481;48.764;8.936;2024-02-15T17:30:59;96890;;;12.3;70.5
68489;BME280;55481;48.764;8.936;2024-02-15T17:33:31;96900;;;12.2;70.5
68489;BME280;55481;48.764;8.936;2024-02-15T17:41:04;96910;;;12.1;70.5
68489;BME280;55481;48.764;8.936;2024-02-15T17:43:33;96910;;;12;70.5
68489;BME280;55481;48.764;8.936;2024-02-15T17:48:28;96910;;;11.9;70.5
68489;BME280;55481;48.764;8.936;2024-02-15T17:50:58;96910;;;11.9;70.5
68489;BME280;55481;48.764;8.936;2024-02-15T17:53:29;96900;;;11.9;70.5
68489;BME280;55481;48.764;8.936;2024-02-15T18:00:56;96900;;;12;70
68489;BME280;55481;48.764;8.936;2024-02-15T18:03:26;96900;;;11.9;70.5
68489;BME280;55481;48.764;8.936;2024-02-15T18:05:57;96910;;;11.8;70.5
68489;BME280;55481;48.764;8.936;2024-02-15T18:10:58;96910;;;11.7;70.5
68489;BME280;55481;48.764;8.936;2024-02-15T18:13:29;96910;;;11.7;70.5
68489;BME280;55481;48.764;8.936;2024-02-15T18:18:37;96920;;;11.8;70.5
68489;BME280;55481;48.764;8.936;2024-02-15T18:21:08;96910;;;11.6;70.5
68489;BME280;55481;48.764;8.936;2024-02-15T18:26:03;96910;;;11.6;70.5
68489;BME280;55481;48.764;8.936;2024-02-15T18:33:38;96890;;;11.5;71
68489;BME280;55481;48.764;8.936;2024-02-15T18:36:06;96880;;;11.5;70.5
68489;BME280;55481;48.764;8.936;2024-02-15T18:38:37;96870;;;11.4;70.5
68489;BME280;55481;48.764;8.936;2024-02-15T18:41:07;96870;;;11.3;70.5
68489;BME280;55481;48.764;8.936;2024-02-15T18:43:45;96860;;;11.3;70.5
68489;BME280;55481;48.764;8.936;2024-02-15T18:46:16;96860;;;11.2;71
68489;BME280;55481;48.764;8.936;2024-02-15T18:51:15;96860;;;11;71